Time;durP1;ratioP1;P1;durP2;ratioP2;P2;SDS_P1;SDS_P2;PMS_P1;PMS_P2;Temp;Humidity;BMP_temperature;BMP_pressure;BME280_temperature;BME280_humidity;BME280_pressure;Samples;Min_cycle;Max_cycle;Signal;HPM_P1;HPM_P2
2021/05/22 00:01:42;;;;;;;1.20;1.10;;;9.50;99.90;;;;;;5034235;28;20045;-80
2021/05/22 00:04:09;;;;;;;2.53;1.33;;;9.50;99.90;;;;;;5035127;28;20041;-81
2021/05/22 00:06:35;;;;;;;1.33;1.10;;;9.50;99.90;;;;;;5034243;28;20037;-80
2021/05/22 00:09:01;;;;;;;1.25;1.15;;;9.50;99.90;;;;;;5034286;28;20060;-81
2021/05/22 00:11:28;;;;;;;1.25;1.15;;;9.60;99.90;;;;;;5033768;28;20525;-81
2021/05/22 00:13:54;;;;;;;1.23;1.10;;;9.60;99.90;;;;;;5030342;28;20049;-81
2021/05/22 00:16:20;;;;;;;1.60;1.33;;;9.60;99.90;;;;;;5021281;28;20029;-81
2021/05/22 00:18:45;;;;;;;1.52;1.42;;;9.60;99.90;;;;;;5032959;28;20065;-80
2021/05/22 00:21:11;;;;;;;1.55;1.40;;;9.60;99.90;;;;;;5034515;28;20037;-79
2021/05/22 00:23:37;;;;;;;2.47;1.70;;;9.60;99.90;;;;;;5016745;28;20405;-79
2021/05/22 00:26:02;;;;;;;1.45;1.35;;;9.60;99.90;;;;;;5032722;28;20033;-79
2021/05/22 00:28:28;;;;;;;3.40;1.77;;;9.60;99.90;;;;;;5033482;28;20430;-79
2021/05/22 00:30:54;;;;;;;2.03;1.80;;;9.60;99.90;;;;;;5033088;28;20022;-80
2021/05/22 00:33:20;;;;;;;5.10;1.85;;;9.60;99.90;;;;;;5016732;28;20030;-79
2021/05/22 00:35:45;;;;;;;2.95;2.20;;;9.60;99.90;;;;;;5033344;28;20033;-80
2021/05/22 00:38:11;;;;;;;2.45;2.00;;;9.70;99.90;;;;;;5033995;28;20029;-79
2021/05/22 00:40:37;;;;;;;2.95;2.05;;;9.80;99.90;;;;;;5018586;28;20026;-79
2021/05/22 00:43:03;;;;;;;2.92;2.20;;;9.80;99.90;;;;;;5026518;28;20466;-79
2021/05/22 00:45:30;;;;;;;2.53;2.15;;;9.80;99.90;;;;;;5013453;28;20088;-80
2021/05/22 00:47:56;;;;;;;2.47;2.28;;;9.80;99.90;;;;;;5032642;28;20044;-80
2021/05/22 00:50:27;;;;;;;2.45;2.13;;;9.80;99.90;;;;;;5030279;28;20034;-80
2021/05/22 00:52:53;;;;;;;2.55;1.73;;;9.80;99.90;;;;;;5021287;28;20047;-79
2021/05/22 00:55:20;;;;;;;3.10;2.00;;;9.90;99.90;;;;;;5033658;28;20030;-80
2021/05/22 00:57:46;;;;;;;2.63;1.58;;;9.90;99.90;;;;;;5023210;28;20569;-79
2021/05/22 01:00:18;;;;;;;2.78;1.92;;;9.90;99.90;;;;;;5017263;28;20042;-79
2021/05/22 01:02:45;;;;;;;2.00;1.70;;;10.00;99.90;;;;;;5031121;28;20042;-80
2021/05/22 01:05:12;;;;;;;2.00;1.75;;;10.00;99.90;;;;;;5032364;28;20482;-80
2021/05/22 01:07:38;;;;;;;2.40;1.70;;;10.10;99.90;;;;;;5031720;28;20044;-79
2021/05/22 01:10:06;;;;;;;1.75;1.45;;;10.10;99.90;;;;;;5034171;28;20030;-80
2021/05/22 01:12:35;;;;;;;1.45;1.30;;;10.10;99.90;;;;;;5013114;28;20466;-79
2021/05/22 01:15:11;;;;;;;3.95;1.55;;;10.20;99.90;;;;;;5033422;28;20037;-79
2021/05/22 01:17:42;;;;;;;1.55;1.25;;;10.20;99.90;;;;;;5026933;28;20038;-79
2021/05/22 01:20:15;;;;;;;2.65;1.40;;;10.20;99.90;;;;;;5017769;28;20029;-79
2021/05/22 01:22:48;;;;;;;2.13;1.27;;;10.20;99.90;;;;;;5028957;28;20092;-80
2021/05/22 01:25:41;;;;;;;2.30;2.05;;;10.20;99.90;;;;;;5025669;28;20041;-80
2021/05/22 01:28:10;;;;;;;1.20;1.10;;;10.20;99.90;;;;;;5032374;28;20041;-80
2021/05/22 01:30:37;;;;;;;1.35;1.25;;;10.20;99.90;;;;;;5000111;28;20082;-79
2021/05/22 01:33:04;;;;;;;1.20;1.00;;;10.20;99.90;;;;;;5036020;28;20025;-79
2021/05/22 01:35:30;;;;;;;3.33;1.23;;;10.20;99.90;;;;;;5040415;28;20509;-80
2021/05/22 01:37:56;;;;;;;0.88;0.85;;;10.20;99.90;;;;;;5032538;28;20120;-80
2021/05/22 01:40:22;;;;;;;1.70;1.20;;;10.20;99.90;;;;;;5026228;28;20099;-80
2021/05/22 01:42:48;;;;;;;2.58;0.90;;;10.20;99.90;;;;;;5033225;28;20033;-80
2021/05/22 01:45:25;;;;;;;0.90;0.90;;;10.20;99.90;;;;;;5032735;28;20052;-80
2021/05/22 01:47:53;;;;;;;2.22;0.82;;;10.20;99.90;;;;;;5031717;28;20025;-80
2021/05/22 01:50:21;;;;;;;1.27;1.00;;;10.20;99.90;;;;;;5028759;28;20080;-79
2021/05/22 01:52:50;;;;;;;1.02;0.90;;;10.20;99.90;;;;;;5032883;28;20389;-79
2021/05/22 01:55:16;;;;;;;1.48;0.88;;;10.20;99.90;;;;;;5015902;28;20452;-79
2021/05/22 01:57:43;;;;;;;1.10;0.75;;;10.20;99.90;;;;;;5031777;28;20184;-79
2021/05/22 02:00:10;;;;;;;2.80;0.93;;;10.20;99.90;;;;;;5032409;28;20029;-79
2021/05/22 02:03:05;;;;;;;0.77;0.77;;;10.20;99.90;;;;;;5042566;28;20064;-80
2021/05/22 02:05:31;;;;;;;2.33;0.70;;;10.20;99.90;;;;;;5011417;28;20118;-79
2021/05/22 02:07:58;;;;;;;0.93;0.88;;;10.10;99.90;;;;;;5030949;28;20430;-80
2021/05/22 02:10:25;;;;;;;0.70;0.60;;;10.10;99.90;;;;;;5015170;28;20104;-80
2021/05/22 02:12:54;;;;;;;1.08;0.70;;;10.10;99.90;;;;;;5032855;28;20026;-80
2021/05/22 02:15:22;;;;;;;4.43;0.80;;;10.00;99.90;;;;;;5016169;28;20060;-80
2021/05/22 02:17:48;;;;;;;2.45;0.70;;;10.10;99.90;;;;;;5034117;28;20029;-79
2021/05/22 02:20:17;;;;;;;1.70;0.75;;;10.00;99.90;;;;;;5033932;28;20029;-80
2021/05/22 02:22:44;;;;;;;1.45;0.55;;;10.00;99.90;;;;;;5000700;28;20045;-80
2021/05/22 02:25:12;;;;;;;1.00;0.80;;;9.90;99.90;;;;;;5016714;28;20045;-79
2021/05/22 02:27:38;;;;;;;0.52;0.52;;;9.90;99.90;;;;;;5033088;28;20032;-80
2021/05/22 02:30:13;;;;;;;1.13;0.90;;;9.90;99.90;;;;;;5015859;28;20030;-80
2021/05/22 02:32:41;;;;;;;0.95;0.65;;;9.90;99.90;;;;;;5010958;28;20541;-79
2021/05/22 02:35:09;;;;;;;1.60;0.70;;;9.80;99.90;;;;;;5031639;28;20128;-80
2021/05/22 02:37:36;;;;;;;1.50;0.60;;;9.80;99.90;;;;;;5016651;28;20620;-79
2021/05/22 02:40:08;;;;;;;0.52;0.50;;;9.80;99.90;;;;;;5015016;28;20462;-79
2021/05/22 02:42:36;;;;;;;1.75;0.40;;;9.80;99.90;;;;;;5018194;28;20034;-80
2021/05/22 02:45:04;;;;;;;0.90;0.57;;;9.80;99.90;;;;;;5032338;28;20059;-79
2021/05/22 02:47:31;;;;;;;0.50;0.45;;;9.80;99.90;;;;;;5015405;28;20033;-80
2021/05/22 02:50:16;;;;;;;2.10;0.65;;;9.80;99.90;;;;;;5033519;28;20032;-80
2021/05/22 02:52:43;;;;;;;1.00;0.40;;;9.70;99.90;;;;;;5028194;28;20037;-79
2021/05/22 02:55:09;;;;;;;0.70;0.60;;;9.70;99.90;;;;;;5032523;28;20021;-80
2021/05/22 02:57:38;;;;;;;0.50;0.50;;;9.80;99.90;;;;;;5016112;28;20413;-79
2021/05/22 03:00:06;;;;;;;0.80;0.50;;;9.70;99.90;;;;;;5019345;28;20040;-80
2021/05/22 03:02:33;;;;;;;1.75;0.55;;;9.80;99.90;;;;;;5021422;28;20409;-80
2021/05/22 03:04:59;;;;;;;0.80;0.60;;;9.70;99.90;;;;;;5035155;28;20033;-80
2021/05/22 03:07:26;;;;;;;0.68;0.30;;;9.70;99.90;;;;;;5031714;28;20445;-80
2021/05/22 03:09:51;;;;;;;2.72;0.50;;;9.60;99.90;;;;;;5033145;28;20124;-80
2021/05/22 03:12:27;;;;;;;2.50;0.40;;;9.60;99.90;;;;;;5003232;28;20493;-79
2021/05/22 03:14:53;;;;;;;;;;;9.50;99.90;;;;;;5036143;28;20558;-80
2021/05/22 03:17:19;;;;;;;0.57;0.35;;;9.50;99.90;;;;;;5037973;28;19909;-80
2021/05/22 03:19:45;;;;;;;0.40;0.20;;;9.40;99.90;;;;;;5036470;28;20140;-80
2021/05/22 03:22:11;;;;;;;0.65;0.20;;;9.30;99.90;;;;;;5037356;28;20120;-79
2021/05/22 03:24:37;;;;;;;0.20;0.10;;;9.30;99.90;;;;;;5020752;28;20793;-79
2021/05/22 03:27:03;;;;;;;0.30;0.20;;;9.20;99.90;;;;;;5036657;28;20037;-80
2021/05/22 03:29:29;;;;;;;0.20;0.10;;;9.20;99.90;;;;;;5036573;28;20049;-79
2021/05/22 03:31:55;;;;;;;0.40;0.10;;;9.20;99.90;;;;;;5036509;28;20119;-79
2021/05/22 03:34:20;;;;;;;4.38;0.20;;;9.10;99.90;;;;;;5035544;28;20064;-80
2021/05/22 03:36:46;;;;;;;0.25;0.22;;;9.10;99.90;;;;;;5036533;28;20033;-80
2021/05/22 03:39:12;;;;;;;0.85;0.10;;;9.00;99.90;;;;;;5035374;28;20029;-80
2021/05/22 03:41:38;;;;;;;0.00;0.00;;;8.90;99.90;;;;;;5015083;28;20046;-81
2021/05/22 03:44:04;;;;;;;1.75;0.20;;;8.90;99.90;;;;;;5002253;28;20037;-80
2021/05/22 03:46:30;;;;;;;0.05;0.05;;;8.80;99.90;;;;;;5034400;28;20048;-80
2021/05/22 03:48:55;;;;;;;0.28;0.10;;;8.70;99.90;;;;;;5031296;28;20045;-79
2021/05/22 03:51:21;;;;;;;2.63;0.82;;;8.70;99.90;;;;;;5036527;28;20468;-80
2021/05/22 03:53:47;;;;;;;0.17;0.10;;;8.70;99.90;;;;;;5034338;28;20034;-79
2021/05/22 03:56:13;;;;;;;0.50;0.10;;;8.70;99.90;;;;;;5034645;28;20038;-79
2021/05/22 03:58:39;;;;;;;1.70;0.10;;;8.70;99.90;;;;;;5018060;28;20492;-80
2021/05/22 04:01:04;;;;;;;0.08;0.03;;;8.60;99.90;;;;;;5029307;28;20504;-80
2021/05/22 04:03:30;;;;;;;0.00;0.00;;;8.60;99.90;;;;;;5032449;28;20033;-80
2021/05/22 04:05:56;;;;;;;0.13;0.13;;;8.60;99.90;;;;;;5030641;28;20033;-80
2021/05/22 04:08:22;;;;;;;0.35;0.10;;;8.60;99.90;;;;;;5028402;28;20052;-79
2021/05/22 04:10:48;;;;;;;0.40;0.13;;;8.60;99.90;;;;;;5043538;28;20049;-80
2021/05/22 04:13:14;;;;;;;0.10;0.10;;;8.60;99.90;;;;;;5045106;28;20443;-79
2021/05/22 04:15:40;;;;;;;0.20;0.10;;;8.50;99.90;;;;;;5034711;28;20422;-79
2021/05/22 04:18:08;;;;;;;0.03;0.03;;;8.50;99.90;;;;;;5034609;28;20032;-79
2021/05/22 04:20:34;;;;;;;0.00;0.00;;;8.40;99.90;;;;;;5017439;28;20033;-79
2021/05/22 04:23:00;;;;;;;0.55;0.00;;;8.40;99.90;;;;;;5030050;28;20100;-79
2021/05/22 04:25:25;;;;;;;0.13;0.10;;;8.30;99.90;;;;;;5029595;28;20121;-80
2021/05/22 04:27:51;;;;;;;0.00;0.00;;;8.30;99.90;;;;;;5032864;28;20028;-79
2021/05/22 04:30:17;;;;;;;0.52;0.20;;;8.10;99.90;;;;;;5034431;28;20029;-79
2021/05/22 04:32:43;;;;;;;0.63;0.20;;;8.10;99.90;;;;;;5033428;28;20033;-79
2021/05/22 04:35:09;;;;;;;0.73;0.22;;;8.00;99.90;;;;;;5032645;28;20041;-79
2021/05/22 04:37:35;;;;;;;0.20;0.10;;;8.00;99.90;;;;;;5032739;28;20094;-80
2021/05/22 04:40:01;;;;;;;0.20;0.10;;;7.90;99.90;;;;;;5006254;28;20180;-79
2021/05/22 04:42:27;;;;;;;0.03;0.03;;;8.00;99.90;;;;;;5032705;28;20037;-80
2021/05/22 04:44:53;;;;;;;0.30;0.10;;;8.00;99.90;;;;;;5033907;28;20160;-79
2021/05/22 04:47:19;;;;;;;0.00;0.00;;;8.10;99.90;;;;;;5032884;28;20029;-79
2021/05/22 04:49:44;;;;;;;0.45;0.20;;;8.10;99.90;;;;;;5033182;28;20026;-79
2021/05/22 04:52:10;;;;;;;0.10;0.10;;;8.10;99.90;;;;;;5032894;28;20390;-80
2021/05/22 04:54:36;;;;;;;0.43;0.15;;;8.10;99.90;;;;;;5015572;28;20057;-79
2021/05/22 04:57:01;;;;;;;0.30;0.10;;;8.20;99.90;;;;;;5015963;28;20037;-80
2021/05/22 04:59:27;;;;;;;0.20;0.20;;;8.20;99.90;;;;;;5032141;28;20436;-79
2021/05/22 05:01:53;;;;;;;0.13;0.13;;;8.30;99.90;;;;;;5032031;28;20084;-80
2021/05/22 05:04:19;;;;;;;0.52;0.52;;;8.30;99.90;;;;;;5033487;28;20401;-79
2021/05/22 05:06:44;;;;;;;0.08;0.08;;;8.30;99.90;;;;;;5028383;28;20037;-79
2021/05/22 05:09:10;;;;;;;1.85;0.20;;;8.40;99.90;;;;;;5025939;28;20034;-79
2021/05/22 05:11:36;;;;;;;0.10;0.10;;;8.40;99.90;;;;;;5033359;28;20041;-80
2021/05/22 05:14:02;;;;;;;0.10;0.10;;;8.40;99.90;;;;;;5015951;28;20037;-80
2021/05/22 05:16:28;;;;;;;0.90;0.10;;;8.50;99.90;;;;;;5033294;28;20079;-78
2021/05/22 05:18:54;;;;;;;0.10;0.10;;;8.50;99.90;;;;;;5033215;28;20041;-79
2021/05/22 05:21:20;;;;;;;0.22;0.20;;;8.50;99.90;;;;;;5027766;28;20041;-80
2021/05/22 05:23:46;;;;;;;0.17;0.10;;;8.50;99.90;;;;;;5016193;28;20164;-79
2021/05/22 05:26:12;;;;;;;0.15;0.00;;;8.50;99.90;;;;;;5031754;28;20065;-79
2021/05/22 05:28:37;;;;;;;1.70;0.10;;;8.60;99.90;;;;;;5032016;28;20037;-80
2021/05/22 05:31:04;;;;;;;1.65;0.20;;;8.60;99.90;;;;;;5034216;28;20025;-79
2021/05/22 05:33:30;;;;;;;0.57;0.08;;;8.70;99.90;;;;;;5015142;28;20113;-79
2021/05/22 05:35:56;;;;;;;0.30;0.10;;;8.60;99.90;;;;;;5031058;28;20061;-80
2021/05/22 05:38:22;;;;;;;0.20;0.20;;;8.70;99.90;;;;;;4996530;28;20068;-79
2021/05/22 05:40:47;;;;;;;0.98;0.20;;;8.90;99.90;;;;;;4991270;28;20122;-79
2021/05/22 05:43:17;;;;;;;0.10;0.10;;;9.20;99.90;;;;;;5047052;28;20028;-79
2021/05/22 05:45:43;;;;;;;0.75;0.20;;;9.80;99.90;;;;;;5032968;28;20029;-80
2021/05/22 05:48:09;;;;;;;0.52;0.20;;;10.40;99.90;;;;;;5037317;28;20029;-80
2021/05/22 05:50:35;;;;;;;0.35;0.20;;;11.10;99.90;;;;;;5041742;28;20048;-80
2021/05/22 05:53:01;;;;;;;1.58;0.28;;;11.50;99.90;;;;;;5035764;28;20033;-79
2021/05/22 05:55:27;;;;;;;0.88;0.20;;;11.60;99.90;;;;;;5031292;28;20117;-80
2021/05/22 05:57:55;;;;;;;0.20;0.20;;;11.60;99.90;;;;;;4997592;28;20549;-80
2021/05/22 06:00:22;;;;;;;0.13;0.13;;;11.50;99.90;;;;;;5038799;28;20649;-80
2021/05/22 06:02:48;;;;;;;0.55;0.13;;;11.30;99.90;;;;;;5046364;28;20037;-80
2021/05/22 06:05:15;;;;;;;1.40;0.22;;;11.20;99.90;;;;;;5035611;28;20060;-81
2021/05/22 06:07:40;;;;;;;0.40;0.10;;;11.00;99.90;;;;;;5035248;28;20048;-81
2021/05/22 06:10:08;;;;;;;0.52;0.20;;;10.90;99.90;;;;;;5026910;28;20033;-80
2021/05/22 06:12:34;;;;;;;0.28;0.22;;;10.80;99.90;;;;;;5039492;28;20026;-80
2021/05/22 06:15:20;;;;;;;0.65;0.30;;;10.80;99.90;;;;;;5030572;28;20025;-80
2021/05/22 06:17:46;;;;;;;1.05;0.40;;;10.70;99.90;;;;;;5025730;28;20452;-80
2021/05/22 06:20:13;;;;;;;0.20;0.20;;;10.60;99.90;;;;;;5033107;28;20045;-80
2021/05/22 06:22:39;;;;;;;0.20;0.20;;;10.60;99.90;;;;;;5033704;28;20148;-81
2021/05/22 06:25:05;;;;;;;1.08;0.35;;;10.90;99.90;;;;;;5038045;28;20043;-80
2021/05/22 06:27:31;;;;;;;0.30;0.20;;;11.30;99.90;;;;;;5034656;28;20041;-81
2021/05/22 06:29:57;;;;;;;0.90;0.40;;;11.80;99.90;;;;;;5036802;28;20045;-80
2021/05/22 06:32:22;;;;;;;1.38;0.40;;;12.10;99.90;;;;;;5038393;28;20516;-80
2021/05/22 06:34:48;;;;;;;1.70;0.43;;;12.30;99.90;;;;;;5033066;28;20115;-80
2021/05/22 06:37:15;;;;;;;2.72;0.30;;;12.70;99.90;;;;;;5027556;28;20405;-80
2021/05/22 06:39:40;;;;;;;0.90;0.30;;;13.20;99.90;;;;;;5034016;28;20061;-80
2021/05/22 06:42:06;;;;;;;1.85;0.75;;;13.50;99.90;;;;;;5040442;28;20555;-81
2021/05/22 06:44:36;;;;;;;1.88;0.30;;;13.50;99.90;;;;;;5016142;28;20397;-80
2021/05/22 06:47:02;;;;;;;1.13;0.13;;;13.30;99.90;;;;;;5031516;28;20097;-80
2021/05/22 06:49:37;;;;;;;1.17;0.50;;;13.30;99.90;;;;;;5030038;28;20485;-80
2021/05/22 06:52:03;;;;;;;0.50;0.40;;;13.10;99.90;;;;;;5031849;28;20430;-81
2021/05/22 06:54:31;;;;;;;2.00;0.60;;;12.80;99.90;;;;;;4995272;28;20061;-81
2021/05/22 06:56:57;;;;;;;3.92;0.32;;;12.60;99.90;;;;;;5001089;28;20037;-81
2021/05/22 06:59:24;;;;;;;0.68;0.40;;;12.40;99.90;;;;;;5028763;28;20382;-79
2021/05/22 07:01:50;;;;;;;0.75;0.40;;;12.00;99.90;;;;;;5023357;28;20051;-83
2021/05/22 07:04:16;;;;;;;1.65;0.40;;;11.90;99.90;;;;;;5032837;28;20037;-80
2021/05/22 07:06:41;;;;;;;4.30;0.50;;;11.70;99.90;;;;;;5025912;28;20040;-81
2021/05/22 07:09:07;;;;;;;2.42;0.30;;;11.50;99.90;;;;;;5005625;28;20486;-81
2021/05/22 07:11:35;;;;;;;1.27;0.50;;;11.30;99.90;;;;;;5012261;28;20516;-80
2021/05/22 07:14:01;;;;;;;7.32;0.82;;;11.10;99.90;;;;;;5026885;28;20108;-79
2021/05/22 07:16:26;;;;;;;1.95;0.32;;;10.90;99.90;;;;;;5023271;28;20117;-80
2021/05/22 07:18:52;;;;;;;1.02;0.35;;;10.80;99.90;;;;;;5026738;28;20037;-81
2021/05/22 07:21:18;;;;;;;3.28;0.50;;;10.80;99.90;;;;;;5024738;28;20093;-81
2021/05/22 07:23:44;;;;;;;1.67;0.30;;;10.80;99.90;;;;;;5033052;28;20406;-81
2021/05/22 07:26:10;;;;;;;3.08;0.60;;;10.90;99.90;;;;;;5027902;28;20033;-80
2021/05/22 07:28:35;;;;;;;3.33;0.60;;;11.10;99.90;;;;;;5028491;28;20061;-80
2021/05/22 07:31:01;;;;;;;0.38;0.30;;;11.20;99.90;;;;;;5023915;28;20029;-80
2021/05/22 07:33:28;;;;;;;2.35;0.70;;;11.20;99.90;;;;;;5036062;28;20025;-81
2021/05/22 07:35:54;;;;;;;2.30;0.50;;;11.20;99.90;;;;;;5026414;28;20021;-79
2021/05/22 07:38:20;;;;;;;1.42;0.50;;;11.30;99.90;;;;;;5007766;28;20040;-79
2021/05/22 07:40:46;;;;;;;1.25;0.40;;;11.50;99.90;;;;;;5012638;28;20702;-79
2021/05/22 07:43:12;;;;;;;3.85;0.52;;;11.90;99.90;;;;;;5028760;28;20021;-79
2021/05/22 07:45:38;;;;;;;2.10;0.30;;;12.20;99.90;;;;;;5028928;28;20037;-79
2021/05/22 07:48:04;;;;;;;1.85;0.25;;;12.40;99.90;;;;;;5035742;28;20039;-80
2021/05/22 07:50:31;;;;;;;0.73;0.30;;;12.50;99.90;;;;;;5030824;28;20560;-79
2021/05/22 07:52:57;;;;;;;0.50;0.30;;;12.60;99.90;;;;;;5061712;28;20036;-79
2021/05/22 07:55:23;;;;;;;1.00;0.47;;;12.70;99.90;;;;;;5039056;28;20064;-79
2021/05/22 07:57:49;;;;;;;4.93;0.50;;;13.00;99.90;;;;;;5034282;28;20033;-78
2021/05/22 08:00:15;;;;;;;1.05;0.40;;;13.10;99.90;;;;;;5034188;28;20739;-79
2021/05/22 08:02:43;;;;;;;2.00;0.40;;;13.00;99.90;;;;;;5032400;28;20676;-79
2021/05/22 08:05:09;;;;;;;0.75;0.35;;;12.90;99.90;;;;;;5039994;28;20045;-79
2021/05/22 08:07:35;;;;;;;1.25;0.45;;;12.70;99.90;;;;;;5033290;28;20033;-79
2021/05/22 08:10:06;;;;;;;0.55;0.38;;;12.60;99.90;;;;;;5040891;28;20557;-79
2021/05/22 08:12:31;;;;;;;1.45;0.55;;;12.40;99.90;;;;;;5022103;28;20066;-79
2021/05/22 08:14:57;;;;;;;2.60;0.50;;;12.30;99.90;;;;;;5030359;28;20437;-79
2021/05/22 08:17:23;;;;;;;4.25;0.45;;;12.60;99.90;;;;;;5031656;28;20099;-80
2021/05/22 08:19:49;;;;;;;1.02;0.20;;;13.00;99.90;;;;;;5016091;28;20451;-80
2021/05/22 08:22:15;;;;;;;1.83;0.20;;;13.30;99.90;;;;;;4980068;28;20038;-80
2021/05/22 08:24:40;;;;;;;1.60;0.30;;;13.60;99.90;;;;;;5014837;28;20168;-80
2021/05/22 08:27:07;;;;;;;0.82;0.35;;;13.70;99.90;;;;;;5032942;28;20040;-81
2021/05/22 08:29:33;;;;;;;0.80;0.30;;;13.90;99.90;;;;;;5018572;28;20021;-80
2021/05/22 08:31:58;;;;;;;0.22;0.20;;;13.90;99.90;;;;;;4995598;28;20036;-80
2021/05/22 08:34:26;;;;;;;0.75;0.38;;;14.00;99.90;;;;;;5030408;28;20049;-81
2021/05/22 08:36:52;;;;;;;0.85;0.30;;;14.10;99.90;;;;;;5031370;28;20105;-79
2021/05/22 08:39:18;;;;;;;0.82;0.30;;;14.10;99.90;;;;;;5013799;28;20493;-81
2021/05/22 08:41:44;;;;;;;0.20;0.20;;;14.20;99.90;;;;;;5015104;28;20029;-79
2021/05/22 08:44:10;;;;;;;2.40;0.22;;;14.10;99.90;;;;;;5020036;28;20021;-80
2021/05/22 08:46:36;;;;;;;2.00;0.20;;;14.00;99.90;;;;;;5035252;28;20111;-79
2021/05/22 08:49:02;;;;;;;1.08;0.28;;;14.20;99.90;;;;;;5007171;28;20033;-79
2021/05/22 08:51:28;;;;;;;1.67;0.45;;;14.50;99.90;;;;;;5040540;28;20076;-79
2021/05/22 08:53:53;;;;;;;1.98;0.35;;;14.50;99.90;;;;;;5007919;28;20041;-80
2021/05/22 08:56:19;;;;;;;2.35;0.40;;;14.50;99.90;;;;;;5031477;28;20119;-80
2021/05/22 08:58:46;;;;;;;1.08;0.22;;;14.50;99.90;;;;;;5013520;28;20033;-80
2021/05/22 09:01:12;;;;;;;0.25;0.10;;;14.60;99.90;;;;;;5015741;28;20445;-79
2021/05/22 09:03:37;;;;;;;0.65;0.35;;;14.80;99.90;;;;;;5017918;28;20433;-79
2021/05/22 09:06:04;;;;;;;0.95;0.30;;;14.90;99.10;;;;;;5025676;28;20046;-78
2021/05/22 09:08:33;;;;;;;4.25;0.35;;;14.90;95.90;;;;;;5030223;28;20017;-79
2021/05/22 09:11:03;;;;;;;1.38;0.40;;;14.90;99.90;;;;;;5024191;28;20113;-78
2021/05/22 09:13:30;;;;;;;3.10;0.20;;;15.00;98.20;;;;;;5028323;28;20124;-80
2021/05/22 09:16:09;;;;;;;2.15;0.73;;;15.00;96.10;;;;;;5032207;28;20033;-79
2021/05/22 09:18:38;;;;;;;2.25;0.30;;;15.00;97.40;;;;;;5058237;28;20121;-83
2021/05/22 09:21:09;;;;;;;1.98;0.20;;;15.00;93.90;;;;;;5008006;28;20029;-78
2021/05/22 09:23:39;;;;;;;0.57;0.25;;;15.00;96.80;;;;;;5029398;28;20080;-79
2021/05/22 09:26:08;;;;;;;2.30;0.40;;;15.10;99.50;;;;;;5030757;28;20025;-79
2021/05/22 09:28:38;;;;;;;3.45;0.40;;;15.30;94.80;;;;;;5030260;28;20470;-78
2021/05/22 09:31:05;;;;;;;0.90;0.30;;;15.40;95.20;;;;;;5032019;28;20596;-79
2021/05/22 09:33:34;;;;;;;1.30;0.30;;;15.50;97.10;;;;;;5011838;28;20374;-78
2021/05/22 09:36:01;;;;;;;1.45;0.45;;;15.60;91.40;;;;;;5031440;28;20029;-78
2021/05/22 09:38:34;;;;;;;2.47;0.40;;;15.50;87.10;;;;;;5032192;28;20410;-79
2021/05/22 09:41:12;;;;;;;2.72;0.43;;;15.40;89.70;;;;;;5044665;28;20022;-79
2021/05/22 09:43:37;;;;;;;2.67;0.40;;;15.30;94.30;;;;;;5038964;28;20029;-79
2021/05/22 09:46:09;;;;;;;5.22;0.60;;;15.40;90.30;;;;;;5026483;28;20021;-79
2021/05/22 09:48:36;;;;;;;4.78;0.45;;;15.50;95.70;;;;;;5028830;28;20040;-79
2021/05/22 09:51:03;;;;;;;2.15;0.45;;;15.60;90.90;;;;;;5013733;28;20036;-78
2021/05/22 09:53:34;;;;;;;1.02;0.45;;;15.90;95.00;;;;;;5014684;28;20033;-79
2021/05/22 09:56:21;;;;;;;2.45;0.85;;;16.10;91.90;;;;;;5038789;28;20043;-78
2021/05/22 09:58:54;;;;;;;1.85;0.40;;;16.20;92.40;;;;;;5008872;28;20034;-78
2021/05/22 10:01:41;;;;;;;1.10;0.40;;;16.30;93.90;;;;;;5022807;28;20105;-78
2021/05/22 10:04:22;;;;;;;0.85;0.35;;;16.30;90.30;;;;;;5013385;28;20219;-79
2021/05/22 10:06:48;;;;;;;1.90;0.30;;;16.30;88.70;;;;;;5025870;28;20393;-79
2021/05/22 10:09:16;;;;;;;0.35;0.20;;;16.20;87.80;;;;;;5029421;28;20034;-79
2021/05/22 10:12:04;;;;;;;2.38;0.38;;;16.20;90.10;;;;;;5035135;28;20021;-80
2021/05/22 10:14:36;;;;;;;1.25;0.20;;;16.30;90.70;;;;;;5034317;28;20032;-80
2021/05/22 10:17:03;;;;;;;2.03;0.38;;;16.50;83.80;;;;;;5030736;28;20025;-79
2021/05/22 10:19:30;;;;;;;2.50;0.30;;;16.30;88.30;;;;;;5036282;28;20108;-79
2021/05/22 10:21:57;;;;;;;1.58;0.30;;;16.20;86.90;;;;;;5038711;28;20441;-79
2021/05/22 10:24:24;;;;;;;4.40;0.65;;;16.10;87.50;;;;;;5031947;28;20037;-79
2021/05/22 10:26:52;;;;;;;2.50;0.65;;;16.10;86.20;;;;;;5031591;28;20436;-79
2021/05/22 10:29:19;;;;;;;0.98;0.35;;;16.00;89.80;;;;;;5043628;28;20014;-79
2021/05/22 10:31:45;;;;;;;1.88;0.32;;;16.00;90.60;;;;;;5033142;28;20026;-78
2021/05/22 10:34:16;;;;;;;4.25;0.20;;;15.90;81.20;;;;;;5035836;28;20021;-79
2021/05/22 10:36:55;;;;;;;0.65;0.13;;;16.00;89.40;;;;;;5029571;28;20021;-79
2021/05/22 10:39:41;;;;;;;1.13;0.17;;;16.20;91.20;;;;;;5027500;28;20497;-78
2021/05/22 10:42:08;;;;;;;;;;;16.40;89.60;;;;;;5009768;28;20034;-79
2021/05/22 10:44:37;;;;;;;2.85;0.35;;;16.40;83.40;;;;;;5027825;28;19913;-79
2021/05/22 10:47:23;;;;;;;2.42;0.10;;;16.60;84.30;;;;;;5028719;28;20026;-78
2021/05/22 10:49:55;;;;;;;0.82;0.13;;;16.70;90.00;;;;;;5011206;28;20044;-78
2021/05/22 10:52:35;;;;;;;1.75;0.20;;;16.80;84.40;;;;;;5033204;28;20466;-79
2021/05/22 10:55:12;;;;;;;0.93;0.30;;;17.00;77.10;;;;;;5017308;28;20029;-78
2021/05/22 10:57:46;;;;;;;1.25;0.40;;;17.10;80.80;;;;;;5028685;28;20485;-78
2021/05/22 11:00:25;;;;;;;0.83;0.20;;;17.30;81.20;;;;;;5026642;28;20087;-78
2021/05/22 11:02:54;;;;;;;2.28;0.20;;;17.30;75.60;;;;;;4995114;28;20069;-78
2021/05/22 11:05:23;;;;;;;1.85;0.20;;;17.40;74.60;;;;;;5018057;28;20030;-79
2021/05/22 11:08:09;;;;;;;3.00;0.40;;;17.50;82.00;;;;;;5031005;28;20030;-78
2021/05/22 11:10:38;;;;;;;;;;;17.30;67.60;;;;;;5020387;28;20029;-79
2021/05/22 11:13:09;;;;;;;0.57;0.20;;;17.30;73.30;;;;;;5010686;28;20424;-78
2021/05/22 11:15:46;;;;;;;0.98;0.30;;;17.30;71.30;;;;;;5025782;28;20083;-79
2021/05/22 11:18:14;;;;;;;2.53;0.30;;;17.30;74.80;;;;;;5027564;28;20029;-78
2021/05/22 11:20:42;;;;;;;3.00;0.60;;;17.20;72.10;;;;;;5029406;28;20037;-78
2021/05/22 11:23:09;;;;;;;3.15;1.13;;;17.10;76.90;;;;;;5042593;28;20089;-78
2021/05/22 11:25:52;;;;;;;0.82;0.20;;;17.10;75.80;;;;;;5030021;28;20051;-78
2021/05/22 11:28:22;;;;;;;1.25;0.50;;;16.70;72.80;;;;;;5032533;28;20064;-78
2021/05/22 11:30:54;;;;;;;1.75;0.20;;;16.60;77.80;;;;;;5034296;28;20599;-77
2021/05/22 11:33:22;;;;;;;2.30;0.40;;;16.60;77.70;;;;;;5026795;28;20080;-79
2021/05/22 11:35:52;;;;;;;1.02;0.32;;;16.80;78.50;;;;;;5027591;28;20094;-77
2021/05/22 11:38:18;;;;;;;1.15;0.30;;;16.90;73.20;;;;;;5027116;28;20035;-77
2021/05/22 11:40:44;;;;;;;0.55;0.20;;;17.00;72.50;;;;;;5024802;28;20039;-79
2021/05/22 11:43:12;;;;;;;3.30;0.30;;;17.20;76.30;;;;;;5027046;28;20690;-78
2021/05/22 11:45:46;;;;;;;0.52;0.32;;;17.40;73.70;;;;;;5027030;28;20025;-77
2021/05/22 11:48:32;;;;;;;0.75;0.40;;;17.60;73.50;;;;;;5027258;28;20014;-77
2021/05/22 11:50:58;;;;;;;;;;;17.70;69.80;;;;;;5028947;28;20022;-77
2021/05/22 11:53:28;;;;;;;1.10;0.40;;;17.70;67.60;;;;;;5026554;28;19978;-77
2021/05/22 11:55:58;;;;;;;1.52;0.28;;;17.70;64.80;;;;;;5010500;28;20033;-79
2021/05/22 11:58:24;;;;;;;2.10;0.35;;;17.70;65.30;;;;;;5026499;28;20441;-78
2021/05/22 12:00:50;;;;;;;1.42;0.40;;;17.70;65.90;;;;;;5029009;28;20030;-78
2021/05/22 12:03:26;;;;;;;3.80;0.50;;;17.70;68.90;;;;;;5028552;28;20037;-78
2021/05/22 12:05:53;;;;;;;0.98;0.30;;;17.50;70.70;;;;;;5034721;28;20112;-78
2021/05/22 12:08:27;;;;;;;0.50;0.20;;;17.30;66.60;;;;;;5031486;28;20092;-79
2021/05/22 12:10:53;;;;;;;1.58;0.40;;;17.10;66.60;;;;;;5037897;28;20041;-79
2021/05/22 12:13:18;;;;;;;1.70;0.30;;;17.00;68.20;;;;;;5035335;28;20096;-77
2021/05/22 12:15:45;;;;;;;1.17;0.30;;;17.00;68.40;;;;;;5029389;28;20017;-79
2021/05/22 12:18:18;;;;;;;2.03;0.20;;;16.90;70.10;;;;;;5029355;28;20719;-77
2021/05/22 12:20:53;;;;;;;0.95;0.52;;;16.80;71.10;;;;;;5017388;28;20095;-78
2021/05/22 12:23:26;;;;;;;0.93;0.30;;;16.60;71.80;;;;;;5040575;28;20094;-77
2021/05/22 12:25:53;;;;;;;0.38;0.22;;;16.40;73.80;;;;;;5029526;28;20280;-77
2021/05/22 12:28:19;;;;;;;2.45;0.28;;;16.40;72.00;;;;;;5029722;28;20021;-77
2021/05/22 12:30:46;;;;;;;1.60;0.43;;;16.80;69.60;;;;;;5028590;28;20028;-77
2021/05/22 12:33:16;;;;;;;1.55;0.20;;;17.00;68.40;;;;;;5028333;28;20029;-78
2021/05/22 12:35:42;;;;;;;0.30;0.22;;;17.40;73.50;;;;;;5026603;28;20092;-78
2021/05/22 12:38:08;;;;;;;0.22;0.20;;;17.80;70.80;;;;;;5027259;28;20753;-78
2021/05/22 12:40:48;;;;;;;0.50;0.20;;;18.20;69.80;;;;;;5025497;28;20055;-77
2021/05/22 12:43:15;;;;;;;2.20;0.40;;;18.70;69.70;;;;;;5025897;28;20037;-77
2021/05/22 12:45:43;;;;;;;4.05;0.30;;;19.00;67.70;;;;;;5038870;28;20409;-78
2021/05/22 12:48:23;;;;;;;7.57;0.60;;;19.20;58.10;;;;;;5030965;28;20123;-78
2021/05/22 12:50:49;;;;;;;0.22;0.17;;;19.10;56.80;;;;;;5031646;28;20401;-78
2021/05/22 12:53:28;;;;;;;0.57;0.32;;;19.00;57.30;;;;;;5010170;28;20504;-78
2021/05/22 12:56:05;;;;;;;3.08;0.30;;;19.00;57.10;;;;;;5028157;28;20040;-79